Sim-Planet VA

Sim-Planet Nouvel Horizon. By: Anthony Pay
Since 2020.




 METAR ET TAF INFORMATION
METAR FOR EKVG
ADDS - METARS form results

(1319 UTC 09 December 2021)
Data provider http://aviationweather.gov/metar/data/
 
METAR text: EKVG 091250Z AUTO 10010KT 9999 OVC017/// 05/03 Q0984 RMK BKN018/// BKN042/// WIND SKEID 12020KT
Conditions at: EKVG (SORVAAG/VAGAR , DK) observed 1250 UTC 09 December 2021
Temperature: 5.0°C (41°F)
Dewpoint: 3.0°C (37°F) [RH = 87%]
Pressure (altimeter): 29.06 inches Hg (984.0 mb)
Winds: from the E (100 degrees) at 12 MPH (10 knots; 5.1 m/s)
Visibility: 6 or more miles (10+ km)
Ceiling: 1700 feet AGL
Clouds: overcast cloud deck at 1700 feet AGL
Weather: no significant weather observed at this time

METAR text: EKVG 091220Z AUTO 11011KT 9999 OVC019/// 05/03 Q0985 RMK BKN018/// WIND SKEID 12019KT
Conditions at: EKVG (SORVAAG/VAGAR , DK) observed 1220 UTC 09 December 2021
Temperature: 5.0°C (41°F)
Dewpoint: 3.0°C (37°F) [RH = 87%]
Pressure (altimeter): 29.08 inches Hg (985.0 mb)
Winds: from the ESE (110 degrees) at 13 MPH (11 knots; 5.7 m/s)
Visibility: 6 or more miles (10+ km)
Ceiling: 1900 feet AGL
Clouds: overcast cloud deck at 1900 feet AGL
Weather: no significant weather observed at this time

Forecast for: EKVG (SORVAAG/VAGAR , DK)
Text: TAF EKVG 091108Z 0912/0921 13010KT 9999 BKN024 OVC045
Forecast period: 1200 to 2100 UTC 09 December 2021
Forecast type: FROM: standard forecast or significant change
Winds: from the SE (130 degrees) at 12 MPH (10 knots; 5.1 m/s)
Visibility: 6 or more miles (10+ km)
Ceiling: 2400 feet AGL
Clouds: broken clouds at 2400 feet AGL
overcast cloud deck at 4500 feet AGL
Weather: no significant weather forecast for this period
Text: TEMPO 0912/0918 SHRA BKN012
Forecast period: 1200 to 1800 UTC 09 December 2021
Forecast type: TEMPORARY: The following changes expected for less than half the time period
Visibility: missing
Ceiling: 1200 feet AGL
Clouds: broken clouds at 1200 feet AGL
Weather: SHRA  (rain showers)

 AÉROPORT DE AÉROPORT

 INFORMATIONS DE PISTE
Piste 13 Longueur de la piste 5902 ft Largeur de la piste 98 ft
Élévation de la piste 268 ft Seuil de la piste déplacés 0 ft Runway heading 118
Piste 31 Longueur de la piste 5902 ft Largeur de la piste 98 ft
Élévation de la piste 252 ft Seuil de la piste déplacés 0 ft Runway heading 298

 AÉROPORT FRÉQUENCES
Type AFIS Nom AFIS Féquence 124.85 MHZ

 SIDA DE NAVIGATION
Type NDB Nom Myggenes Féquence 337 KHZ
Type NDB Nom Nolso Féquence 404 KHZ
Type NDB Nom Vagar Féquence 348 KHZ

Nos Partenaires